sensor_id;sensor_type;location;lat;lon;timestamp;P1;durP1;ratioP1;P2;durP2;ratioP2
36797;SDS011;22748;8.426;99.512;2024-01-15T00:00:45;25.75;;;19.48;;
36797;SDS011;22748;8.426;99.512;2024-01-15T00:03:15;28.15;;;22.90;;
36797;SDS011;22748;8.426;99.512;2024-01-15T00:05:50;75.82;;;33.90;;
36797;SDS011;22748;8.426;99.512;2024-01-15T00:08:19;52.03;;;31.67;;
36797;SDS011;22748;8.426;99.512;2024-01-15T00:10:50;36.33;;;25.95;;
36797;SDS011;22748;8.426;99.512;2024-01-15T00:13:19;31.40;;;22.42;;
36797;SDS011;22748;8.426;99.512;2024-01-15T00:15:49;28.98;;;21.00;;
36797;SDS011;22748;8.426;99.512;2024-01-15T00:18:19;26.20;;;21.15;;
36797;SDS011;22748;8.426;99.512;2024-01-15T00:20:54;31.38;;;22.55;;
36797;SDS011;22748;8.426;99.512;2024-01-15T00:23:24;33.05;;;23.33;;
36797;SDS011;22748;8.426;99.512;2024-01-15T00:25:54;32.97;;;21.25;;
36797;SDS011;22748;8.426;99.512;2024-01-15T00:28:24;30.05;;;23.80;;
36797;SDS011;22748;8.426;99.512;2024-01-15T00:30:54;37.25;;;29.85;;
36797;SDS011;22748;8.426;99.512;2024-01-15T00:33:24;39.75;;;25.20;;
36797;SDS011;22748;8.426;99.512;2024-01-15T00:36:00;33.25;;;23.00;;
36797;SDS011;22748;8.426;99.512;2024-01-15T00:38:32;29.48;;;22.35;;
36797;SDS011;22748;8.426;99.512;2024-01-15T00:41:02;31.67;;;22.13;;
36797;SDS011;22748;8.426;99.512;2024-01-15T00:43:32;40.28;;;27.23;;
36797;SDS011;22748;8.426;99.512;2024-01-15T00:46:02;33.30;;;24.10;;
36797;SDS011;22748;8.426;99.512;2024-01-15T00:48:31;31.85;;;24.25;;
36797;SDS011;22748;8.426;99.512;2024-01-15T00:51:07;35.38;;;23.50;;
36797;SDS011;22748;8.426;99.512;2024-01-15T00:53:36;37.22;;;25.95;;
36797;SDS011;22748;8.426;99.512;2024-01-15T00:56:05;43.03;;;26.92;;
36797;SDS011;22748;8.426;99.512;2024-01-15T00:58:35;30.98;;;24.20;;
36797;SDS011;22748;8.426;99.512;2024-01-15T01:01:07;53.78;;;24.80;;
36797;SDS011;22748;8.426;99.512;2024-01-15T01:03:37;32.97;;;24.48;;
36797;SDS011;22748;8.426;99.512;2024-01-15T01:06:12;42.75;;;25.95;;
36797;SDS011;22748;8.426;99.512;2024-01-15T01:08:42;43.58;;;27.15;;
36797;SDS011;22748;8.426;99.512;2024-01-15T01:11:13;41.17;;;28.33;;
36797;SDS011;22748;8.426;99.512;2024-01-15T01:13:44;46.67;;;32.75;;
36797;SDS011;22748;8.426;99.512;2024-01-15T01:16:14;41.30;;;31.33;;
36797;SDS011;22748;8.426;99.512;2024-01-15T01:18:44;43.50;;;31.40;;
36797;SDS011;22748;8.426;99.512;2024-01-15T01:21:19;47.90;;;36.47;;
36797;SDS011;22748;8.426;99.512;2024-01-15T01:23:48;53.47;;;40.78;;
36797;SDS011;22748;8.426;99.512;2024-01-15T01:26:18;58.75;;;42.97;;
36797;SDS011;22748;8.426;99.512;2024-01-15T01:28:48;74.38;;;53.20;;
36797;SDS011;22748;8.426;99.512;2024-01-15T01:31:18;70.38;;;51.97;;
36797;SDS011;22748;8.426;99.512;2024-01-15T01:33:48;72.50;;;53.00;;
36797;SDS011;22748;8.426;99.512;2024-01-15T01:36:19;69.63;;;48.55;;
36797;SDS011;22748;8.426;99.512;2024-01-15T01:38:49;60.75;;;46.42;;
36797;SDS011;22748;8.426;99.512;2024-01-15T01:41:19;57.83;;;41.22;;
36797;SDS011;22748;8.426;99.512;2024-01-15T01:43:50;56.63;;;41.33;;
36797;SDS011;22748;8.426;99.512;2024-01-15T01:46:20;52.95;;;38.75;;
36797;SDS011;22748;8.426;99.512;2024-01-15T01:48:49;56.53;;;38.15;;
36797;SDS011;22748;8.426;99.512;2024-01-15T01:51:25;49.58;;;33.60;;
36797;SDS011;22748;8.426;99.512;2024-01-15T01:53:55;56.33;;;38.08;;
36797;SDS011;22748;8.426;99.512;2024-01-15T01:56:24;62.65;;;43.05;;
36797;SDS011;22748;8.426;99.512;2024-01-15T01:58:54;53.38;;;38.05;;
36797;SDS011;22748;8.426;99.512;2024-01-15T02:01:24;51.03;;;34.25;;
36797;SDS011;22748;8.426;99.512;2024-01-15T02:03:54;51.60;;;34.00;;
36797;SDS011;22748;8.426;99.512;2024-01-15T02:06:29;47.20;;;33.30;;
36797;SDS011;22748;8.426;99.512;2024-01-15T02:08:59;50.67;;;32.90;;
36797;SDS011;22748;8.426;99.512;2024-01-15T02:11:29;52.22;;;34.25;;
36797;SDS011;22748;8.426;99.512;2024-01-15T02:13:58;49.63;;;30.58;;
36797;SDS011;22748;8.426;99.512;2024-01-15T02:16:28;39.20;;;28.45;;
36797;SDS011;22748;8.426;99.512;2024-01-15T02:18:58;35.92;;;26.92;;
36797;SDS011;22748;8.426;99.512;2024-01-15T02:21:34;42.53;;;28.07;;
36797;SDS011;22748;8.426;99.512;2024-01-15T02:24:10;41.88;;;25.45;;
36797;SDS011;22748;8.426;99.512;2024-01-15T02:26:40;31.90;;;24.83;;
36797;SDS011;22748;8.426;99.512;2024-01-15T02:29:10;35.07;;;19.47;;
36797;SDS011;22748;8.426;99.512;2024-01-15T02:31:41;28.60;;;19.20;;
36797;SDS011;22748;8.426;99.512;2024-01-15T02:34:11;45.92;;;34.30;;
36797;SDS011;22748;8.426;99.512;2024-01-15T02:36:41;37.67;;;21.83;;
36797;SDS011;22748;8.426;99.512;2024-01-15T02:39:17;24.45;;;18.50;;
36797;SDS011;22748;8.426;99.512;2024-01-15T02:41:46;29.23;;;19.27;;
36797;SDS011;22748;8.426;99.512;2024-01-15T02:44:16;28.17;;;18.70;;
36797;SDS011;22748;8.426;99.512;2024-01-15T02:46:49;30.70;;;18.67;;
36797;SDS011;22748;8.426;99.512;2024-01-15T02:49:19;29.25;;;18.48;;
36797;SDS011;22748;8.426;99.512;2024-01-15T02:51:48;29.30;;;19.70;;
36797;SDS011;22748;8.426;99.512;2024-01-15T02:54:24;27.80;;;17.52;;
36797;SDS011;22748;8.426;99.512;2024-01-15T02:56:53;24.33;;;17.02;;
36797;SDS011;22748;8.426;99.512;2024-01-15T02:59:23;24.95;;;16.58;;
36797;SDS011;22748;8.426;99.512;2024-01-15T03:01:53;25.67;;;17.48;;
36797;SDS011;22748;8.426;99.512;2024-01-15T03:04:23;22.67;;;16.33;;
36797;SDS011;22748;8.426;99.512;2024-01-15T03:06:53;21.58;;;15.82;;
36797;SDS011;22748;8.426;99.512;2024-01-15T03:09:24;21.15;;;16.23;;
36797;SDS011;22748;8.426;99.512;2024-01-15T03:11:57;22.00;;;15.63;;
36797;SDS011;22748;8.426;99.512;2024-01-15T03:14:26;24.38;;;15.60;;
36797;SDS011;22748;8.426;99.512;2024-01-15T03:16:56;23.63;;;15.32;;
36797;SDS011;22748;8.426;99.512;2024-01-15T03:19:26;24.85;;;17.67;;
36797;SDS011;22748;8.426;99.512;2024-01-15T03:21:56;25.90;;;16.48;;
36797;SDS011;22748;8.426;99.512;2024-01-15T03:24:32;25.45;;;15.65;;
36797;SDS011;22748;8.426;99.512;2024-01-15T03:27:02;21.27;;;15.63;;
36797;SDS011;22748;8.426;99.512;2024-01-15T03:29:32;22.30;;;15.63;;
36797;SDS011;22748;8.426;99.512;2024-01-15T03:32:02;33.60;;;24.20;;
36797;SDS011;22748;8.426;99.512;2024-01-15T03:34:32;25.17;;;17.67;;
36797;SDS011;22748;8.426;99.512;2024-01-15T03:37:02;25.05;;;17.35;;
36797;SDS011;22748;8.426;99.512;2024-01-15T03:39:38;29.15;;;14.85;;
36797;SDS011;22748;8.426;99.512;2024-01-15T03:42:08;27.15;;;15.13;;
36797;SDS011;22748;8.426;99.512;2024-01-15T03:44:37;23.00;;;15.40;;
36797;SDS011;22748;8.426;99.512;2024-01-15T03:47:10;21.67;;;15.48;;
36797;SDS011;22748;8.426;99.512;2024-01-15T03:49:40;25.10;;;14.73;;
36797;SDS011;22748;8.426;99.512;2024-01-15T03:52:09;23.85;;;14.32;;
36797;SDS011;22748;8.426;99.512;2024-01-15T03:54:41;21.73;;;14.13;;
36797;SDS011;22748;8.426;99.512;2024-01-15T03:57:11;21.13;;;14.85;;
36797;SDS011;22748;8.426;99.512;2024-01-15T03:59:40;23.30;;;14.15;;
36797;SDS011;22748;8.426;99.512;2024-01-15T04:02:13;20.00;;;16.15;;
36797;SDS011;22748;8.426;99.512;2024-01-15T04:04:43;25.33;;;16.95;;
36797;SDS011;22748;8.426;99.512;2024-01-15T04:07:13;26.77;;;16.10;;
36797;SDS011;22748;8.426;99.512;2024-01-15T04:09:49;21.75;;;15.95;;
36797;SDS011;22748;8.426;99.512;2024-01-15T04:12:18;21.98;;;14.57;;
36797;SDS011;22748;8.426;99.512;2024-01-15T04:14:48;18.77;;;13.75;;
36797;SDS011;22748;8.426;99.512;2024-01-15T04:17:18;23.63;;;14.02;;
36797;SDS011;22748;8.426;99.512;2024-01-15T04:19:47;19.58;;;13.85;;
36797;SDS011;22748;8.426;99.512;2024-01-15T04:22:17;22.80;;;14.43;;
36797;SDS011;22748;8.426;99.512;2024-01-15T04:24:53;24.47;;;16.10;;
36797;SDS011;22748;8.426;99.512;2024-01-15T04:27:22;21.58;;;15.32;;
36797;SDS011;22748;8.426;99.512;2024-01-15T04:29:52;24.20;;;14.48;;
36797;SDS011;22748;8.426;99.512;2024-01-15T04:32:23;22.95;;;13.77;;
36797;SDS011;22748;8.426;99.512;2024-01-15T04:34:53;16.90;;;13.43;;
36797;SDS011;22748;8.426;99.512;2024-01-15T04:37:23;22.00;;;13.20;;
36797;SDS011;22748;8.426;99.512;2024-01-15T04:39:59;23.50;;;13.68;;
36797;SDS011;22748;8.426;99.512;2024-01-15T04:42:29;21.27;;;13.23;;
36797;SDS011;22748;8.426;99.512;2024-01-15T04:44:59;22.30;;;13.75;;
36797;SDS011;22748;8.426;99.512;2024-01-15T04:47:29;20.83;;;13.77;;
36797;SDS011;22748;8.426;99.512;2024-01-15T04:50:02;19.38;;;12.00;;
36797;SDS011;22748;8.426;99.512;2024-01-15T04:52:33;16.33;;;12.60;;
36797;SDS011;22748;8.426;99.512;2024-01-15T04:55:05;20.05;;;13.35;;
36797;SDS011;22748;8.426;99.512;2024-01-15T04:57:35;18.00;;;13.23;;
36797;SDS011;22748;8.426;99.512;2024-01-15T05:00:05;17.30;;;12.10;;
36797;SDS011;22748;8.426;99.512;2024-01-15T05:02:36;18.08;;;11.88;;
36797;SDS011;22748;8.426;99.512;2024-01-15T05:05:06;22.15;;;13.13;;
36797;SDS011;22748;8.426;99.512;2024-01-15T05:07:36;19.60;;;13.70;;
36797;SDS011;22748;8.426;99.512;2024-01-15T05:10:11;18.77;;;14.98;;
36797;SDS011;22748;8.426;99.512;2024-01-15T05:12:41;23.15;;;15.52;;
36797;SDS011;22748;8.426;99.512;2024-01-15T05:15:11;20.90;;;16.33;;
36797;SDS011;22748;8.426;99.512;2024-01-15T05:17:41;26.45;;;16.70;;
36797;SDS011;22748;8.426;99.512;2024-01-15T05:20:11;25.60;;;16.05;;
36797;SDS011;22748;8.426;99.512;2024-01-15T05:22:41;23.30;;;14.90;;
36797;SDS011;22748;8.426;99.512;2024-01-15T05:25:17;20.98;;;15.13;;
36797;SDS011;22748;8.426;99.512;2024-01-15T05:27:50;27.27;;;14.60;;
36797;SDS011;22748;8.426;99.512;2024-01-15T05:30:20;21.60;;;15.38;;
36797;SDS011;22748;8.426;99.512;2024-01-15T05:32:50;21.17;;;16.65;;
36797;SDS011;22748;8.426;99.512;2024-01-15T05:35:20;21.80;;;15.83;;
36797;SDS011;22748;8.426;99.512;2024-01-15T05:37:50;22.13;;;15.57;;
36797;SDS011;22748;8.426;99.512;2024-01-15T05:40:25;23.92;;;15.25;;
36797;SDS011;22748;8.426;99.512;2024-01-15T05:42:55;21.55;;;16.05;;
36797;SDS011;22748;8.426;99.512;2024-01-15T05:45:25;22.15;;;14.80;;
36797;SDS011;22748;8.426;99.512;2024-01-15T05:47:55;32.53;;;15.80;;
36797;SDS011;22748;8.426;99.512;2024-01-15T05:50:25;26.17;;;14.85;;
36797;SDS011;22748;8.426;99.512;2024-01-15T05:52:55;22.88;;;15.48;;
36797;SDS011;22748;8.426;99.512;2024-01-15T05:55:27;24.17;;;15.95;;
36797;SDS011;22748;8.426;99.512;2024-01-15T05:57:57;23.02;;;14.68;;
36797;SDS011;22748;8.426;99.512;2024-01-15T06:00:27;21.33;;;14.27;;
36797;SDS011;22748;8.426;99.512;2024-01-15T06:02:57;19.48;;;14.40;;
36797;SDS011;22748;8.426;99.512;2024-01-15T06:05:27;22.08;;;13.82;;
36797;SDS011;22748;8.426;99.512;2024-01-15T06:07:57;20.20;;;13.98;;
36797;SDS011;22748;8.426;99.512;2024-01-15T06:10:32;18.38;;;13.88;;
36797;SDS011;22748;8.426;99.512;2024-01-15T06:13:04;21.23;;;14.18;;
36797;SDS011;22748;8.426;99.512;2024-01-15T06:15:34;19.42;;;14.38;;
36797;SDS011;22748;8.426;99.512;2024-01-15T06:18:05;24.08;;;14.32;;
36797;SDS011;22748;8.426;99.512;2024-01-15T06:20:35;24.33;;;13.90;;
36797;SDS011;22748;8.426;99.512;2024-01-15T06:23:05;20.35;;;14.25;;
36797;SDS011;22748;8.426;99.512;2024-01-15T06:25:41;24.30;;;15.65;;
36797;SDS011;22748;8.426;99.512;2024-01-15T06:28:11;28.67;;;14.82;;
36797;SDS011;22748;8.426;99.512;2024-01-15T06:30:41;19.98;;;13.85;;
36797;SDS011;22748;8.426;99.512;2024-01-15T06:33:11;21.20;;;14.15;;
36797;SDS011;22748;8.426;99.512;2024-01-15T06:35:41;23.10;;;13.70;;
36797;SDS011;22748;8.426;99.512;2024-01-15T06:38:14;20.50;;;13.98;;
36797;SDS011;22748;8.426;99.512;2024-01-15T06:40:49;22.83;;;14.35;;
36797;SDS011;22748;8.426;99.512;2024-01-15T06:43:19;23.15;;;14.32;;
36797;SDS011;22748;8.426;99.512;2024-01-15T06:45:49;22.77;;;15.75;;
36797;SDS011;22748;8.426;99.512;2024-01-15T06:48:19;26.85;;;15.15;;
36797;SDS011;22748;8.426;99.512;2024-01-15T06:50:49;22.85;;;14.57;;
36797;SDS011;22748;8.426;99.512;2024-01-15T06:53:19;24.77;;;14.88;;
36797;SDS011;22748;8.426;99.512;2024-01-15T06:55:50;19.98;;;14.07;;
36797;SDS011;22748;8.426;99.512;2024-01-15T06:58:20;20.10;;;12.93;;
36797;SDS011;22748;8.426;99.512;2024-01-15T07:00:50;20.65;;;12.70;;
36797;SDS011;22748;8.426;99.512;2024-01-15T07:03:19;20.52;;;14.00;;
36797;SDS011;22748;8.426;99.512;2024-01-15T07:05:49;24.02;;;14.27;;
36797;SDS011;22748;8.426;99.512;2024-01-15T07:08:20;16.70;;;14.17;;
36797;SDS011;22748;8.426;99.512;2024-01-15T07:10:51;18.13;;;13.27;;
36797;SDS011;22748;8.426;99.512;2024-01-15T07:13:21;19.23;;;13.07;;
36797;SDS011;22748;8.426;99.512;2024-01-15T07:15:51;19.88;;;13.50;;
36797;SDS011;22748;8.426;99.512;2024-01-15T07:18:20;23.38;;;13.98;;
36797;SDS011;22748;8.426;99.512;2024-01-15T07:20:50;24.58;;;14.32;;
36797;SDS011;22748;8.426;99.512;2024-01-15T07:23:20;23.58;;;14.15;;
36797;SDS011;22748;8.426;99.512;2024-01-15T07:25:56;19.83;;;13.18;;
36797;SDS011;22748;8.426;99.512;2024-01-15T07:28:26;18.33;;;13.88;;
36797;SDS011;22748;8.426;99.512;2024-01-15T07:30:58;18.95;;;13.95;;
36797;SDS011;22748;8.426;99.512;2024-01-15T07:33:30;18.83;;;13.77;;
36797;SDS011;22748;8.426;99.512;2024-01-15T07:36:00;20.40;;;13.40;;
36797;SDS011;22748;8.426;99.512;2024-01-15T07:38:31;21.27;;;14.52;;
36797;SDS011;22748;8.426;99.512;2024-01-15T07:41:06;23.17;;;14.18;;
36797;SDS011;22748;8.426;99.512;2024-01-15T07:43:36;19.88;;;14.02;;
36797;SDS011;22748;8.426;99.512;2024-01-15T07:46:07;19.52;;;13.73;;
36797;SDS011;22748;8.426;99.512;2024-01-15T07:48:36;19.08;;;12.88;;
36797;SDS011;22748;8.426;99.512;2024-01-15T07:51:06;17.55;;;12.27;;
36797;SDS011;22748;8.426;99.512;2024-01-15T07:53:36;20.17;;;12.98;;
36797;SDS011;22748;8.426;99.512;2024-01-15T07:56:12;20.60;;;14.23;;
36797;SDS011;22748;8.426;99.512;2024-01-15T07:58:42;19.70;;;13.82;;
36797;SDS011;22748;8.426;99.512;2024-01-15T08:01:12;16.33;;;13.45;;
36797;SDS011;22748;8.426;99.512;2024-01-15T08:03:41;23.80;;;14.10;;
36797;SDS011;22748;8.426;99.512;2024-01-15T08:06:11;21.65;;;13.57;;
36797;SDS011;22748;8.426;99.512;2024-01-15T08:08:42;18.83;;;13.70;;
36797;SDS011;22748;8.426;99.512;2024-01-15T08:11:17;16.85;;;13.80;;
36797;SDS011;22748;8.426;99.512;2024-01-15T08:13:47;30.08;;;15.07;;
36797;SDS011;22748;8.426;99.512;2024-01-15T08:16:17;29.38;;;16.58;;
36797;SDS011;22748;8.426;99.512;2024-01-15T08:18:47;28.38;;;16.45;;
36797;SDS011;22748;8.426;99.512;2024-01-15T08:21:17;29.43;;;16.43;;
36797;SDS011;22748;8.426;99.512;2024-01-15T08:23:47;24.23;;;16.02;;
36797;SDS011;22748;8.426;99.512;2024-01-15T08:26:22;24.60;;;16.67;;
36797;SDS011;22748;8.426;99.512;2024-01-15T08:28:52;26.58;;;16.58;;
36797;SDS011;22748;8.426;99.512;2024-01-15T08:31:21;25.27;;;17.10;;
36797;SDS011;22748;8.426;99.512;2024-01-15T08:33:51;29.27;;;17.25;;
36797;SDS011;22748;8.426;99.512;2024-01-15T08:36:21;28.20;;;17.25;;
36797;SDS011;22748;8.426;99.512;2024-01-15T08:38:51;26.95;;;18.38;;
36797;SDS011;22748;8.426;99.512;2024-01-15T08:41:27;25.80;;;17.08;;
36797;SDS011;22748;8.426;99.512;2024-01-15T08:43:57;27.63;;;18.83;;
36797;SDS011;22748;8.426;99.512;2024-01-15T08:46:27;30.38;;;18.23;;
36797;SDS011;22748;8.426;99.512;2024-01-15T08:48:56;22.92;;;17.00;;
36797;SDS011;22748;8.426;99.512;2024-01-15T08:51:26;23.70;;;18.40;;
36797;SDS011;22748;8.426;99.512;2024-01-15T08:53:56;23.75;;;18.23;;
36797;SDS011;22748;8.426;99.512;2024-01-15T08:56:31;24.55;;;17.67;;
36797;SDS011;22748;8.426;99.512;2024-01-15T08:59:00;36.60;;;20.42;;
36797;SDS011;22748;8.426;99.512;2024-01-15T09:01:30;32.50;;;20.23;;
36797;SDS011;22748;8.426;99.512;2024-01-15T09:04:00;31.15;;;19.33;;
36797;SDS011;22748;8.426;99.512;2024-01-15T09:06:29;37.75;;;20.30;;
36797;SDS011;22748;8.426;99.512;2024-01-15T09:08:59;35.00;;;18.88;;
36797;SDS011;22748;8.426;99.512;2024-01-15T09:11:36;28.25;;;18.10;;
36797;SDS011;22748;8.426;99.512;2024-01-15T09:14:06;30.40;;;18.90;;
36797;SDS011;22748;8.426;99.512;2024-01-15T09:16:36;29.10;;;19.25;;
36797;SDS011;22748;8.426;99.512;2024-01-15T09:19:06;32.45;;;19.08;;
36797;SDS011;22748;8.426;99.512;2024-01-15T09:21:36;33.87;;;19.53;;
36797;SDS011;22748;8.426;99.512;2024-01-15T09:24:07;26.40;;;18.25;;
36797;SDS011;22748;8.426;99.512;2024-01-15T09:26:43;28.52;;;18.40;;
36797;SDS011;22748;8.426;99.512;2024-01-15T09:29:13;28.45;;;18.92;;
36797;SDS011;22748;8.426;99.512;2024-01-15T09:31:42;24.58;;;17.55;;
36797;SDS011;22748;8.426;99.512;2024-01-15T09:34:12;26.15;;;18.35;;
36797;SDS011;22748;8.426;99.512;2024-01-15T09:36:42;29.08;;;17.80;;
36797;SDS011;22748;8.426;99.512;2024-01-15T09:39:12;35.90;;;20.73;;
36797;SDS011;22748;8.426;99.512;2024-01-15T09:41:44;26.85;;;17.80;;
36797;SDS011;22748;8.426;99.512;2024-01-15T09:44:14;29.98;;;18.85;;
36797;SDS011;22748;8.426;99.512;2024-01-15T09:46:45;34.05;;;19.15;;
36797;SDS011;22748;8.426;99.512;2024-01-15T09:49:16;28.73;;;19.05;;
36797;SDS011;22748;8.426;99.512;2024-01-15T09:51:46;34.42;;;19.42;;
36797;SDS011;22748;8.426;99.512;2024-01-15T09:54:16;26.90;;;16.98;;
36797;SDS011;22748;8.426;99.512;2024-01-15T09:56:53;36.35;;;20.13;;
36797;SDS011;22748;8.426;99.512;2024-01-15T09:59:23;66.43;;;32.15;;
36797;SDS011;22748;8.426;99.512;2024-01-15T10:01:55;35.47;;;22.15;;
36797;SDS011;22748;8.426;99.512;2024-01-15T10:04:25;37.77;;;21.27;;
36797;SDS011;22748;8.426;99.512;2024-01-15T10:06:55;55.25;;;25.73;;
36797;SDS011;22748;8.426;99.512;2024-01-15T10:09:26;51.78;;;25.90;;
36797;SDS011;22748;8.426;99.512;2024-01-15T10:12:02;35.10;;;19.60;;
36797;SDS011;22748;8.426;99.512;2024-01-15T10:14:33;30.30;;;19.55;;
36797;SDS011;22748;8.426;99.512;2024-01-15T10:17:11;46.83;;;24.88;;
36797;SDS011;22748;8.426;99.512;2024-01-15T10:19:44;84.80;;;37.00;;
36797;SDS011;22748;8.426;99.512;2024-01-15T10:22:14;62.60;;;31.73;;
36797;SDS011;22748;8.426;99.512;2024-01-15T10:24:44;56.15;;;28.17;;
36797;SDS011;22748;8.426;99.512;2024-01-15T10:27:20;65.03;;;33.97;;
36797;SDS011;22748;8.426;99.512;2024-01-15T10:29:50;33.03;;;21.13;;
36797;SDS011;22748;8.426;99.512;2024-01-15T10:32:19;44.40;;;23.88;;
36797;SDS011;22748;8.426;99.512;2024-01-15T10:34:51;61.58;;;32.70;;
36797;SDS011;22748;8.426;99.512;2024-01-15T10:37:23;57.13;;;31.55;;
36797;SDS011;22748;8.426;99.512;2024-01-15T10:42:28;38.58;;;25.27;;
36797;SDS011;22748;8.426;99.512;2024-01-15T10:44:57;43.42;;;27.40;;
36797;SDS011;22748;8.426;99.512;2024-01-15T10:47:27;44.38;;;24.67;;
36797;SDS011;22748;8.426;99.512;2024-01-15T10:49:58;112.82;;;49.53;;
36797;SDS011;22748;8.426;99.512;2024-01-15T10:54:58;125.53;;;53.53;;
36797;SDS011;22748;8.426;99.512;2024-01-15T10:57:35;392.70;;;148.98;;
36797;SDS011;22748;8.426;99.512;2024-01-15T11:00:06;169.00;;;72.53;;
36797;SDS011;22748;8.426;99.512;2024-01-15T11:02:40;308.25;;;121.47;;
36797;SDS011;22748;8.426;99.512;2024-01-15T11:05:11;78.47;;;39.22;;
36797;SDS011;22748;8.426;99.512;2024-01-15T11:07:43;139.90;;;57.08;;
36797;SDS011;22748;8.426;99.512;2024-01-15T11:13:20;44.17;;;25.25;;
36797;SDS011;22748;8.426;99.512;2024-01-15T11:15:57;61.13;;;28.83;;
36797;SDS011;22748;8.426;99.512;2024-01-15T11:18:29;75.65;;;33.92;;
36797;SDS011;22748;8.426;99.512;2024-01-15T11:23:51;100.55;;;42.95;;
36797;SDS011;22748;8.426;99.512;2024-01-15T11:26:28;81.78;;;36.88;;
36797;SDS011;22748;8.426;99.512;2024-01-15T11:29:05;112.70;;;49.13;;
36797;SDS011;22748;8.426;99.512;2024-01-15T11:37:20;74.85;;;40.30;;
36797;SDS011;22748;8.426;99.512;2024-01-15T11:39:52;68.50;;;38.30;;
36797;SDS011;22748;8.426;99.512;2024-01-15T11:42:23;51.63;;;30.48;;
36797;SDS011;22748;8.426;99.512;2024-01-15T11:44:55;37.63;;;23.10;;
36797;SDS011;22748;8.426;99.512;2024-01-15T11:50:41;42.65;;;26.08;;
36797;SDS011;22748;8.426;99.512;2024-01-15T11:53:18;36.42;;;21.98;;
36797;SDS011;22748;8.426;99.512;2024-01-15T11:55:57;31.83;;;20.73;;
36797;SDS011;22748;8.426;99.512;2024-01-15T11:58:30;69.57;;;32.13;;
36797;SDS011;22748;8.426;99.512;2024-01-15T12:03:34;68.25;;;33.15;;
36797;SDS011;22748;8.426;99.512;2024-01-15T12:06:05;72.18;;;38.65;;
36797;SDS011;22748;8.426;99.512;2024-01-15T12:08:36;95.30;;;54.05;;
36797;SDS011;22748;8.426;99.512;2024-01-15T12:11:06;155.90;;;82.43;;
36797;SDS011;22748;8.426;99.512;2024-01-15T12:13:40;167.43;;;93.13;;
36797;SDS011;22748;8.426;99.512;2024-01-15T12:16:16;136.45;;;78.65;;
36797;SDS011;22748;8.426;99.512;2024-01-15T12:18:46;80.75;;;49.70;;
36797;SDS011;22748;8.426;99.512;2024-01-15T12:21:16;75.55;;;45.53;;
36797;SDS011;22748;8.426;99.512;2024-01-15T12:23:46;94.55;;;53.75;;
36797;SDS011;22748;8.426;99.512;2024-01-15T12:26:18;83.45;;;46.53;;
36797;SDS011;22748;8.426;99.512;2024-01-15T12:28:49;61.03;;;36.60;;
36797;SDS011;22748;8.426;99.512;2024-01-15T12:31:25;53.80;;;36.08;;
36797;SDS011;22748;8.426;99.512;2024-01-15T12:33:56;52.22;;;32.83;;
36797;SDS011;22748;8.426;99.512;2024-01-15T12:36:25;61.72;;;36.90;;
36797;SDS011;22748;8.426;99.512;2024-01-15T12:38:59;74.78;;;40.50;;
36797;SDS011;22748;8.426;99.512;2024-01-15T12:41:28;70.13;;;43.63;;
36797;SDS011;22748;8.426;99.512;2024-01-15T12:43:58;80.18;;;46.60;;
36797;SDS011;22748;8.426;99.512;2024-01-15T12:46:34;79.45;;;45.30;;
36797;SDS011;22748;8.426;99.512;2024-01-15T12:49:04;84.30;;;48.00;;
36797;SDS011;22748;8.426;99.512;2024-01-15T12:51:36;74.55;;;43.22;;
36797;SDS011;22748;8.426;99.512;2024-01-15T12:54:05;62.75;;;36.92;;
36797;SDS011;22748;8.426;99.512;2024-01-15T12:56:34;57.17;;;34.78;;
36797;SDS011;22748;8.426;99.512;2024-01-15T12:59:04;55.08;;;35.00;;
36797;SDS011;22748;8.426;99.512;2024-01-15T13:01:39;54.60;;;33.50;;
36797;SDS011;22748;8.426;99.512;2024-01-15T13:04:09;45.25;;;28.58;;
36797;SDS011;22748;8.426;99.512;2024-01-15T13:06:39;49.60;;;28.13;;
36797;SDS011;22748;8.426;99.512;2024-01-15T13:09:09;40.83;;;27.35;;
36797;SDS011;22748;8.426;99.512;2024-01-15T13:11:38;40.08;;;24.92;;
36797;SDS011;22748;8.426;99.512;2024-01-15T13:14:08;38.58;;;24.15;;
36797;SDS011;22748;8.426;99.512;2024-01-15T13:16:44;34.28;;;24.35;;
36797;SDS011;22748;8.426;99.512;2024-01-15T13:19:14;39.45;;;26.00;;
36797;SDS011;22748;8.426;99.512;2024-01-15T13:21:45;34.47;;;25.42;;
36797;SDS011;22748;8.426;99.512;2024-01-15T13:24:14;36.05;;;25.38;;
36797;SDS011;22748;8.426;99.512;2024-01-15T13:26:44;36.53;;;24.40;;
36797;SDS011;22748;8.426;99.512;2024-01-15T13:29:13;35.72;;;23.33;;
36797;SDS011;22748;8.426;99.512;2024-01-15T13:31:49;38.35;;;23.83;;
36797;SDS011;22748;8.426;99.512;2024-01-15T13:34:18;34.10;;;23.88;;
36797;SDS011;22748;8.426;99.512;2024-01-15T13:36:48;31.33;;;23.27;;
36797;SDS011;22748;8.426;99.512;2024-01-15T13:41:48;31.00;;;22.30;;
36797;SDS011;22748;8.426;99.512;2024-01-15T13:44:18;35.80;;;22.88;;
36797;SDS011;22748;8.426;99.512;2024-01-15T13:46:53;30.95;;;22.17;;
36797;SDS011;22748;8.426;99.512;2024-01-15T13:49:23;31.67;;;22.88;;
36797;SDS011;22748;8.426;99.512;2024-01-15T13:51:54;28.27;;;20.98;;
36797;SDS011;22748;8.426;99.512;2024-01-15T13:54:23;31.55;;;21.75;;
36797;SDS011;22748;8.426;99.512;2024-01-15T13:56:53;31.67;;;21.63;;
36797;SDS011;22748;8.426;99.512;2024-01-15T13:59:24;30.70;;;23.92;;
36797;SDS011;22748;8.426;99.512;2024-01-15T14:02:00;36.40;;;26.50;;
36797;SDS011;22748;8.426;99.512;2024-01-15T14:04:31;35.40;;;26.00;;
36797;SDS011;22748;8.426;99.512;2024-01-15T14:07:00;52.97;;;34.97;;
36797;SDS011;22748;8.426;99.512;2024-01-15T14:09:30;65.95;;;40.45;;
36797;SDS011;22748;8.426;99.512;2024-01-15T14:12:00;58.53;;;36.20;;
36797;SDS011;22748;8.426;99.512;2024-01-15T14:14:30;40.72;;;28.65;;
36797;SDS011;22748;8.426;99.512;2024-01-15T14:17:02;43.58;;;27.70;;
36797;SDS011;22748;8.426;99.512;2024-01-15T14:19:32;34.05;;;25.60;;
36797;SDS011;22748;8.426;99.512;2024-01-15T14:22:02;34.53;;;26.98;;
36797;SDS011;22748;8.426;99.512;2024-01-15T14:24:32;35.23;;;25.60;;
36797;SDS011;22748;8.426;99.512;2024-01-15T14:27:02;30.88;;;24.17;;
36797;SDS011;22748;8.426;99.512;2024-01-15T14:29:33;39.72;;;26.25;;
36797;SDS011;22748;8.426;99.512;2024-01-15T14:34:35;41.20;;;26.02;;
36797;SDS011;22748;8.426;99.512;2024-01-15T14:37:05;38.60;;;27.27;;
36797;SDS011;22748;8.426;99.512;2024-01-15T14:39:35;38.70;;;28.17;;
36797;SDS011;22748;8.426;99.512;2024-01-15T14:42:05;40.67;;;28.13;;
36797;SDS011;22748;8.426;99.512;2024-01-15T14:44:35;39.63;;;27.67;;
36797;SDS011;22748;8.426;99.512;2024-01-15T14:47:13;35.83;;;26.83;;
36797;SDS011;22748;8.426;99.512;2024-01-15T14:49:43;30.85;;;21.33;;
36797;SDS011;22748;8.426;99.512;2024-01-15T14:52:13;23.23;;;16.25;;
36797;SDS011;22748;8.426;99.512;2024-01-15T14:54:42;15.73;;;10.32;;
36797;SDS011;22748;8.426;99.512;2024-01-15T14:57:13;13.73;;;8.75;;
36797;SDS011;22748;8.426;99.512;2024-01-15T14:59:44;11.25;;;7.82;;
36797;SDS011;22748;8.426;99.512;2024-01-15T15:02:20;6.38;;;5.40;;
36797;SDS011;22748;8.426;99.512;2024-01-15T15:04:52;5.65;;;4.80;;
36797;SDS011;22748;8.426;99.512;2024-01-15T15:07:22;4.38;;;4.00;;
36797;SDS011;22748;8.426;99.512;2024-01-15T15:09:52;3.88;;;3.00;;